sensor_id;sensor_type;location;lat;lon;timestamp;pressure;altitude;pressure_sealevel;temperature;humidity
12219;BME280;6172;42.646;23.344;2023-04-06T00:01:44;94307.00;;;-1.48;100.00
12219;BME280;6172;42.646;23.344;2023-04-06T00:04:12;94306.56;;;-1.66;100.00
12219;BME280;6172;42.646;23.344;2023-04-06T00:06:40;94306.06;;;-1.72;100.00
12219;BME280;6172;42.646;23.344;2023-04-06T00:09:07;94308.19;;;-1.46;100.00
12219;BME280;6172;42.646;23.344;2023-04-06T00:11:35;94308.47;;;-1.67;100.00
12219;BME280;6172;42.646;23.344;2023-04-06T00:14:02;94298.47;;;-1.70;100.00
12219;BME280;6172;42.646;23.344;2023-04-06T00:16:29;94312.16;;;-1.55;100.00
12219;BME280;6172;42.646;23.344;2023-04-06T00:18:58;94304.66;;;-1.66;100.00
12219;BME280;6172;42.646;23.344;2023-04-06T00:21:25;94305.19;;;-1.60;100.00
12219;BME280;6172;42.646;23.344;2023-04-06T00:23:53;94297.50;;;-1.46;100.00
12219;BME280;6172;42.646;23.344;2023-04-06T00:26:21;94295.97;;;-1.63;100.00
12219;BME280;6172;42.646;23.344;2023-04-06T00:28:49;94288.09;;;-1.55;100.00
12219;BME280;6172;42.646;23.344;2023-04-06T00:31:18;94291.13;;;-1.57;100.00
12219;BME280;6172;42.646;23.344;2023-04-06T00:33:45;94294.50;;;-1.44;100.00
12219;BME280;6172;42.646;23.344;2023-04-06T00:36:15;94289.75;;;-1.51;100.00
12219;BME280;6172;42.646;23.344;2023-04-06T00:38:42;94291.84;;;-1.60;100.00
12219;BME280;6172;42.646;23.344;2023-04-06T00:41:10;94283.19;;;-1.53;100.00
12219;BME280;6172;42.646;23.344;2023-04-06T00:43:37;94270.00;;;-1.46;100.00
12219;BME280;6172;42.646;23.344;2023-04-06T00:46:08;94284.69;;;-1.56;100.00
12219;BME280;6172;42.646;23.344;2023-04-06T00:48:36;94275.19;;;-1.53;100.00
12219;BME280;6172;42.646;23.344;2023-04-06T00:51:04;94267.84;;;-1.56;100.00
12219;BME280;6172;42.646;23.344;2023-04-06T00:53:33;94277.00;;;-1.57;100.00
12219;BME280;6172;42.646;23.344;2023-04-06T00:56:01;94278.47;;;-1.76;100.00
12219;BME280;6172;42.646;23.344;2023-04-06T00:58:28;94277.88;;;-1.69;100.00
12219;BME280;6172;42.646;23.344;2023-04-06T01:00:56;94274.34;;;-1.73;100.00
12219;BME280;6172;42.646;23.344;2023-04-06T01:03:24;94275.97;;;-1.69;100.00
12219;BME280;6172;42.646;23.344;2023-04-06T01:05:52;94286.13;;;-1.74;100.00
12219;BME280;6172;42.646;23.344;2023-04-06T01:08:24;94280.56;;;-1.69;100.00
12219;BME280;6172;42.646;23.344;2023-04-06T01:10:53;94280.03;;;-1.59;100.00
12219;BME280;6172;42.646;23.344;2023-04-06T01:13:20;94272.44;;;-1.73;100.00
12219;BME280;6172;42.646;23.344;2023-04-06T01:15:48;94268.72;;;-1.68;100.00
12219;BME280;6172;42.646;23.344;2023-04-06T01:18:16;94281.59;;;-1.74;100.00
12219;BME280;6172;42.646;23.344;2023-04-06T01:20:46;94262.59;;;-1.69;100.00
12219;BME280;6172;42.646;23.344;2023-04-06T01:23:16;94255.72;;;-1.70;100.00
12219;BME280;6172;42.646;23.344;2023-04-06T01:25:43;94260.97;;;-1.57;100.00
12219;BME280;6172;42.646;23.344;2023-04-06T01:28:10;94265.91;;;-1.75;100.00
12219;BME280;6172;42.646;23.344;2023-04-06T01:30:37;94262.97;;;-1.70;100.00
12219;BME280;6172;42.646;23.344;2023-04-06T01:33:05;94264.72;;;-1.78;100.00
12219;BME280;6172;42.646;23.344;2023-04-06T01:35:32;94260.91;;;-1.77;100.00
12219;BME280;6172;42.646;23.344;2023-04-06T01:37:59;94267.25;;;-1.66;100.00
12219;BME280;6172;42.646;23.344;2023-04-06T01:40:29;94263.66;;;-1.73;100.00
12219;BME280;6172;42.646;23.344;2023-04-06T01:42:56;94262.97;;;-1.70;100.00
12219;BME280;6172;42.646;23.344;2023-04-06T01:45:24;94266.03;;;-1.52;100.00
12219;BME280;6172;42.646;23.344;2023-04-06T01:47:51;94263.84;;;-1.66;100.00
12219;BME280;6172;42.646;23.344;2023-04-06T01:50:18;94259.16;;;-1.53;100.00
12219;BME280;6172;42.646;23.344;2023-04-06T01:52:46;94253.41;;;-1.71;100.00
12219;BME280;6172;42.646;23.344;2023-04-06T01:55:14;94245.31;;;-1.75;100.00
12219;BME280;6172;42.646;23.344;2023-04-06T01:57:43;94252.28;;;-1.70;100.00
12219;BME280;6172;42.646;23.344;2023-04-06T02:00:12;94250.97;;;-1.60;100.00
12219;BME280;6172;42.646;23.344;2023-04-06T02:02:40;94245.78;;;-1.53;100.00
12219;BME280;6172;42.646;23.344;2023-04-06T02:05:08;94248.13;;;-1.52;100.00
12219;BME280;6172;42.646;23.344;2023-04-06T02:07:35;94245.34;;;-1.55;100.00
12219;BME280;6172;42.646;23.344;2023-04-06T02:10:03;94240.91;;;-1.32;100.00
12219;BME280;6172;42.646;23.344;2023-04-06T02:12:30;94238.72;;;-1.46;100.00
12219;BME280;6172;42.646;23.344;2023-04-06T02:15:00;94238.38;;;-1.44;100.00
12219;BME280;6172;42.646;23.344;2023-04-06T02:17:27;94234.47;;;-1.47;100.00
12219;BME280;6172;42.646;23.344;2023-04-06T02:19:54;94245.00;;;-1.38;100.00
12219;BME280;6172;42.646;23.344;2023-04-06T02:22:21;94234.44;;;-1.31;100.00
12219;BME280;6172;42.646;23.344;2023-04-06T02:24:48;94231.50;;;-1.26;100.00
12219;BME280;6172;42.646;23.344;2023-04-06T02:27:15;94226.91;;;-1.45;100.00
12219;BME280;6172;42.646;23.344;2023-04-06T02:29:44;94236.59;;;-1.37;100.00
12219;BME280;6172;42.646;23.344;2023-04-06T02:32:12;94240.91;;;-1.32;100.00
12219;BME280;6172;42.646;23.344;2023-04-06T02:34:40;94243.44;;;-1.39;100.00
12219;BME280;6172;42.646;23.344;2023-04-06T02:37:09;94227.94;;;-1.49;100.00
12219;BME280;6172;42.646;23.344;2023-04-06T02:39:36;94238.56;;;-1.34;100.00
12219;BME280;6172;42.646;23.344;2023-04-06T02:42:04;94234.16;;;-1.26;100.00
12219;BME280;6172;42.646;23.344;2023-04-06T02:44:32;94224.66;;;-1.24;100.00
12219;BME280;6172;42.646;23.344;2023-04-06T02:46:59;94234.50;;;-1.28;100.00
12219;BME280;6172;42.646;23.344;2023-04-06T02:49:28;94237.63;;;-1.26;100.00
12219;BME280;6172;42.646;23.344;2023-04-06T02:51:56;94232.47;;;-1.15;100.00
12219;BME280;6172;42.646;23.344;2023-04-06T02:54:23;94227.63;;;-1.29;100.00
12219;BME280;6172;42.646;23.344;2023-04-06T02:56:50;94233.91;;;-1.21;100.00
12219;BME280;6172;42.646;23.344;2023-04-06T02:59:18;94231.44;;;-1.11;100.00
12219;BME280;6172;42.646;23.344;2023-04-06T03:01:47;94222.63;;;-1.30;100.00
12219;BME280;6172;42.646;23.344;2023-04-06T03:04:14;94224.47;;;-1.15;100.00
12219;BME280;6172;42.646;23.344;2023-04-06T03:06:43;94227.44;;;-1.20;100.00
12219;BME280;6172;42.646;23.344;2023-04-06T03:09:11;94226.16;;;-1.26;100.00
12219;BME280;6172;42.646;23.344;2023-04-06T03:11:39;94217.84;;;-1.40;100.00
12219;BME280;6172;42.646;23.344;2023-04-06T03:14:06;94227.03;;;-1.38;100.00
12219;BME280;6172;42.646;23.344;2023-04-06T03:16:34;94222.13;;;-1.36;100.00
12219;BME280;6172;42.646;23.344;2023-04-06T03:19:01;94229.81;;;-1.34;100.00
12219;BME280;6172;42.646;23.344;2023-04-06T03:21:28;94219.13;;;-1.34;100.00
12219;BME280;6172;42.646;23.344;2023-04-06T03:23:57;94213.19;;;-1.43;100.00
12219;BME280;6172;42.646;23.344;2023-04-06T03:26:24;94220.69;;;-1.49;100.00
12219;BME280;6172;42.646;23.344;2023-04-06T03:28:51;94205.25;;;-1.40;100.00
12219;BME280;6172;42.646;23.344;2023-04-06T03:31:18;94221.25;;;-1.24;100.00
12219;BME280;6172;42.646;23.344;2023-04-06T03:33:46;94219.47;;;-1.36;100.00
12219;BME280;6172;42.646;23.344;2023-04-06T03:36:14;94224.22;;;-1.45;100.00
12219;BME280;6172;42.646;23.344;2023-04-06T03:38:42;94223.63;;;-1.38;100.00
12219;BME280;6172;42.646;23.344;2023-04-06T03:41:14;94223.31;;;-1.33;100.00
12219;BME280;6172;42.646;23.344;2023-04-06T03:43:42;94225.75;;;-1.28;100.00
12219;BME280;6172;42.646;23.344;2023-04-06T03:46:09;94213.75;;;-1.34;100.00
12219;BME280;6172;42.646;23.344;2023-04-06T03:48:37;94216.09;;;-1.33;100.00
12219;BME280;6172;42.646;23.344;2023-04-06T03:51:05;94213.28;;;-1.40;100.00
12219;BME280;6172;42.646;23.344;2023-04-06T03:53:32;94213.63;;;-1.41;100.00
12219;BME280;6172;42.646;23.344;2023-04-06T03:55:59;94215.59;;;-1.38;100.00
12219;BME280;6172;42.646;23.344;2023-04-06T03:58:28;94221.34;;;-1.36;100.00
12219;BME280;6172;42.646;23.344;2023-04-06T04:00:56;94211.25;;;-1.27;100.00
12219;BME280;6172;42.646;23.344;2023-04-06T04:03:24;94216.44;;;-1.34;100.00
12219;BME280;6172;42.646;23.344;2023-04-06T04:05:53;94213.34;;;-1.36;100.00
12219;BME280;6172;42.646;23.344;2023-04-06T04:08:20;94217.44;;;-1.23;100.00
12219;BME280;6172;42.646;23.344;2023-04-06T04:10:48;94225.88;;;-1.21;100.00
12219;BME280;6172;42.646;23.344;2023-04-06T04:13:16;94213.22;;;-1.24;100.00
12219;BME280;6172;42.646;23.344;2023-04-06T04:15:46;94203.63;;;-1.25;100.00
12219;BME280;6172;42.646;23.344;2023-04-06T04:18:16;94219.25;;;-1.27;100.00
12219;BME280;6172;42.646;23.344;2023-04-06T04:20:43;94210.69;;;-1.17;100.00
12219;BME280;6172;42.646;23.344;2023-04-06T04:23:11;94220.88;;;-1.23;100.00
12219;BME280;6172;42.646;23.344;2023-04-06T04:25:38;94220.53;;;-1.21;100.00
12219;BME280;6172;42.646;23.344;2023-04-06T04:28:06;94203.94;;;-1.11;100.00
12219;BME280;6172;42.646;23.344;2023-04-06T04:30:34;94211.81;;;-0.99;100.00
12219;BME280;6172;42.646;23.344;2023-04-06T04:33:04;94235.31;;;-1.08;100.00
12219;BME280;6172;42.646;23.344;2023-04-06T04:35:32;94230.25;;;-1.13;100.00
12219;BME280;6172;42.646;23.344;2023-04-06T04:38:02;94229.19;;;-1.09;100.00
12219;BME280;6172;42.646;23.344;2023-04-06T04:40:32;94239.03;;;-1.13;100.00
12219;BME280;6172;42.646;23.344;2023-04-06T04:42:59;94229.19;;;-1.09;100.00
12219;BME280;6172;42.646;23.344;2023-04-06T04:45:26;94229.75;;;-1.00;100.00
12219;BME280;6172;42.646;23.344;2023-04-06T04:47:54;94221.94;;;-0.89;100.00
12219;BME280;6172;42.646;23.344;2023-04-06T04:50:23;94222.44;;;-0.84;100.00
12219;BME280;6172;42.646;23.344;2023-04-06T04:52:51;94225.13;;;-0.84;100.00
12219;BME280;6172;42.646;23.344;2023-04-06T04:55:18;94210.03;;;-0.92;100.00
12219;BME280;6172;42.646;23.344;2023-04-06T04:57:46;94225.66;;;-0.75;100.00
12219;BME280;6172;42.646;23.344;2023-04-06T05:00:15;94219.00;;;-0.65;100.00
12219;BME280;6172;42.646;23.344;2023-04-06T05:02:42;94227.72;;;-0.68;100.00
12219;BME280;6172;42.646;23.344;2023-04-06T05:05:09;94224.47;;;-0.58;100.00
12219;BME280;6172;42.646;23.344;2023-04-06T05:07:38;94223.63;;;-0.62;100.00
12219;BME280;6172;42.646;23.344;2023-04-06T05:10:06;94220.53;;;-0.64;100.00
12219;BME280;6172;42.646;23.344;2023-04-06T05:12:34;94218.28;;;-0.62;100.00
12219;BME280;6172;42.646;23.344;2023-04-06T05:15:01;94222.75;;;-0.47;100.00
12219;BME280;6172;42.646;23.344;2023-04-06T05:17:28;94228.06;;;-0.28;100.00
12219;BME280;6172;42.646;23.344;2023-04-06T05:19:55;94221.81;;;-0.13;100.00
12219;BME280;6172;42.646;23.344;2023-04-06T05:22:23;94216.34;;;-0.20;100.00
12219;BME280;6172;42.646;23.344;2023-04-06T05:24:52;94227.94;;;-0.13;100.00
12219;BME280;6172;42.646;23.344;2023-04-06T05:27:19;94229.56;;;-0.08;100.00
12219;BME280;6172;42.646;23.344;2023-04-06T05:29:46;94232.72;;;-0.25;100.00
12219;BME280;6172;42.646;23.344;2023-04-06T05:32:13;94228.91;;;-0.02;100.00
12219;BME280;6172;42.646;23.344;2023-04-06T05:34:41;94228.03;;;-0.09;100.00
12219;BME280;6172;42.646;23.344;2023-04-06T05:37:08;94232.13;;;-0.15;100.00
12219;BME280;6172;42.646;23.344;2023-04-06T05:39:36;94236.72;;;-0.35;100.00
12219;BME280;6172;42.646;23.344;2023-04-06T05:42:07;94236.41;;;-0.11;100.00
12219;BME280;6172;42.646;23.344;2023-04-06T05:44:45;94241.03;;;0.15;100.00
12219;BME280;6172;42.646;23.344;2023-04-06T05:47:14;94230.53;;;0.29;100.00
12219;BME280;6172;42.646;23.344;2023-04-06T05:49:41;94232.88;;;0.30;100.00
12219;BME280;6172;42.646;23.344;2023-04-06T05:52:09;94223.75;;;0.35;100.00
12219;BME280;6172;42.646;23.344;2023-04-06T05:54:36;94230.50;;;0.51;100.00
12219;BME280;6172;42.646;23.344;2023-04-06T05:57:05;94218.41;;;0.61;100.00
12219;BME280;6172;42.646;23.344;2023-04-06T05:59:33;94219.00;;;0.77;100.00
12219;BME280;6172;42.646;23.344;2023-04-06T06:02:01;94212.44;;;0.74;100.00
12219;BME280;6172;42.646;23.344;2023-04-06T06:04:28;94204.81;;;0.76;100.00
12219;BME280;6172;42.646;23.344;2023-04-06T06:06:56;94215.28;;;0.85;100.00
12219;BME280;6172;42.646;23.344;2023-04-06T06:09:23;94218.94;;;1.03;100.00
12219;BME280;6172;42.646;23.344;2023-04-06T06:11:50;94215.88;;;1.01;100.00
12219;BME280;6172;42.646;23.344;2023-04-06T06:14:19;94209.38;;;1.35;100.00
12219;BME280;6172;42.646;23.344;2023-04-06T06:16:47;94207.97;;;1.48;100.00
12219;BME280;6172;42.646;23.344;2023-04-06T06:19:15;94206.50;;;1.54;100.00
12219;BME280;6172;42.646;23.344;2023-04-06T06:21:43;94210.06;;;1.65;100.00
12219;BME280;6172;42.646;23.344;2023-04-06T06:24:10;94215.06;;;1.63;100.00
12219;BME280;6172;42.646;23.344;2023-04-06T06:26:37;94210.94;;;2.16;100.00
12219;BME280;6172;42.646;23.344;2023-04-06T06:29:05;94206.66;;;3.37;95.40
12219;BME280;6172;42.646;23.344;2023-04-06T06:31:33;94206.91;;;4.46;78.60
12219;BME280;6172;42.646;23.344;2023-04-06T06:34:01;94193.03;;;5.69;72.01
12219;BME280;6172;42.646;23.344;2023-04-06T06:36:29;94193.03;;;6.34;70.27
12219;BME280;6172;42.646;23.344;2023-04-06T06:38:57;94194.78;;;6.58;63.14
12219;BME280;6172;42.646;23.344;2023-04-06T06:41:24;94187.81;;;7.01;57.75
12219;BME280;6172;42.646;23.344;2023-04-06T06:43:51;94188.50;;;7.09;56.05
12219;BME280;6172;42.646;23.344;2023-04-06T06:46:20;94191.31;;;6.03;56.49
12219;BME280;6172;42.646;23.344;2023-04-06T06:48:48;94197.38;;;6.21;57.96
12219;BME280;6172;42.646;23.344;2023-04-06T06:51:18;94205.06;;;6.77;56.61
12219;BME280;6172;42.646;23.344;2023-04-06T06:53:45;94198.44;;;7.22;54.08
12219;BME280;6172;42.646;23.344;2023-04-06T06:56:12;94188.91;;;7.07;54.25
12219;BME280;6172;42.646;23.344;2023-04-06T06:58:40;94199.66;;;7.81;52.59
12219;BME280;6172;42.646;23.344;2023-04-06T07:01:08;94196.69;;;7.99;50.68
12219;BME280;6172;42.646;23.344;2023-04-06T07:03:35;94188.69;;;8.45;50.40
12219;BME280;6172;42.646;23.344;2023-04-06T07:06:04;94185.34;;;10.04;47.07
12219;BME280;6172;42.646;23.344;2023-04-06T07:08:31;94174.13;;;10.02;44.91
12219;BME280;6172;42.646;23.344;2023-04-06T07:10:58;94174.00;;;10.42;43.70
12219;BME280;6172;42.646;23.344;2023-04-06T07:13:25;94181.22;;;9.77;44.11
12219;BME280;6172;42.646;23.344;2023-04-06T07:15:53;94179.31;;;10.13;42.99
12219;BME280;6172;42.646;23.344;2023-04-06T07:18:21;94170.66;;;10.82;42.26
12219;BME280;6172;42.646;23.344;2023-04-06T07:21:04;94169.88;;;10.17;43.12
12219;BME280;6172;42.646;23.344;2023-04-06T07:23:35;94186.75;;;9.34;44.84
12219;BME280;6172;42.646;23.344;2023-04-06T07:26:02;94162.81;;;9.26;43.70
12219;BME280;6172;42.646;23.344;2023-04-06T07:28:29;94180.19;;;8.89;44.99
12219;BME280;6172;42.646;23.344;2023-04-06T07:30:56;94170.28;;;9.41;44.82
12219;BME280;6172;42.646;23.344;2023-04-06T07:33:25;94186.63;;;8.99;44.51
12219;BME280;6172;42.646;23.344;2023-04-06T07:36:09;94172.59;;;9.62;44.30
12219;BME280;6172;42.646;23.344;2023-04-06T07:38:36;94178.81;;;10.18;42.83
12219;BME280;6172;42.646;23.344;2023-04-06T07:41:03;94175.59;;;9.29;43.61
12219;BME280;6172;42.646;23.344;2023-04-06T07:43:30;94182.47;;;9.14;43.75
12219;BME280;6172;42.646;23.344;2023-04-06T07:45:58;94175.03;;;9.76;43.30
12219;BME280;6172;42.646;23.344;2023-04-06T07:48:26;94169.84;;;10.01;42.22
12219;BME280;6172;42.646;23.344;2023-04-06T07:51:00;94180.69;;;9.04;43.93
12219;BME280;6172;42.646;23.344;2023-04-06T07:53:29;94176.59;;;9.15;44.36
12219;BME280;6172;42.646;23.344;2023-04-06T07:55:57;94172.78;;;9.13;44.31
12219;BME280;6172;42.646;23.344;2023-04-06T07:58:27;94176.34;;;8.41;46.22
12219;BME280;6172;42.646;23.344;2023-04-06T08:00:56;94180.19;;;8.89;46.20
12219;BME280;6172;42.646;23.344;2023-04-06T08:03:24;94176.19;;;8.51;46.77
12219;BME280;6172;42.646;23.344;2023-04-06T08:05:52;94177.66;;;8.79;45.75
12219;BME280;6172;42.646;23.344;2023-04-06T08:08:19;94168.13;;;7.91;47.54
12219;BME280;6172;42.646;23.344;2023-04-06T08:10:49;94172.53;;;7.51;48.52
12219;BME280;6172;42.646;23.344;2023-04-06T08:13:16;94173.69;;;7.17;49.86
12219;BME280;6172;42.646;23.344;2023-04-06T08:15:44;94179.50;;;6.78;50.69
12219;BME280;6172;42.646;23.344;2023-04-06T08:18:11;94187.94;;;6.43;52.42
12219;BME280;6172;42.646;23.344;2023-04-06T08:20:38;94169.31;;;6.49;52.85
12219;BME280;6172;42.646;23.344;2023-04-06T08:23:05;94176.94;;;6.68;53.17
12219;BME280;6172;42.646;23.344;2023-04-06T08:25:35;94188.50;;;6.68;53.48
12219;BME280;6172;42.646;23.344;2023-04-06T08:28:03;94192.75;;;6.22;54.03
12219;BME280;6172;42.646;23.344;2023-04-06T08:30:31;94186.00;;;5.86;55.41
12219;BME280;6172;42.646;23.344;2023-04-06T08:32:58;94188.06;;;6.26;53.50
12219;BME280;6172;42.646;23.344;2023-04-06T08:35:26;94188.84;;;6.26;54.44
12219;BME280;6172;42.646;23.344;2023-04-06T08:37:53;94189.09;;;6.42;53.30
12219;BME280;6172;42.646;23.344;2023-04-06T08:40:20;94180.50;;;6.54;52.37
12219;BME280;6172;42.646;23.344;2023-04-06T08:42:49;94192.97;;;6.41;52.25
12219;BME280;6172;42.646;23.344;2023-04-06T08:45:21;94199.19;;;5.80;52.20
12219;BME280;6172;42.646;23.344;2023-04-06T08:47:50;94190.94;;;6.05;52.84
12219;BME280;6172;42.646;23.344;2023-04-06T08:50:18;94181.97;;;6.11;51.39
12219;BME280;6172;42.646;23.344;2023-04-06T08:52:47;94183.63;;;6.53;50.91
12219;BME280;6172;42.646;23.344;2023-04-06T08:55:15;94173.44;;;6.67;50.38
12219;BME280;6172;42.646;23.344;2023-04-06T08:57:42;94169.47;;;7.16;49.37
12219;BME280;6172;42.646;23.344;2023-04-06T09:00:11;94160.03;;;7.61;48.90
12219;BME280;6172;42.646;23.344;2023-04-06T09:02:43;94163.41;;;7.01;48.64
12219;BME280;6172;42.646;23.344;2023-04-06T09:05:12;94177.28;;;7.44;49.25
12219;BME280;6172;42.646;23.344;2023-04-06T09:07:40;94176.03;;;8.08;48.11
12219;BME280;6172;42.646;23.344;2023-04-06T09:10:09;94161.25;;;7.56;48.36
12219;BME280;6172;42.646;23.344;2023-04-06T09:12:36;94159.84;;;8.01;47.50
12219;BME280;6172;42.646;23.344;2023-04-06T09:15:04;94159.69;;;8.12;46.83
12219;BME280;6172;42.646;23.344;2023-04-06T09:17:32;94176.84;;;8.05;46.97
12219;BME280;6172;42.646;23.344;2023-04-06T09:20:02;94167.03;;;7.88;47.42
12219;BME280;6172;42.646;23.344;2023-04-06T09:22:36;94170.81;;;8.71;45.93
12219;BME280;6172;42.646;23.344;2023-04-06T09:25:04;94167.78;;;8.16;46.56
12219;BME280;6172;42.646;23.344;2023-04-06T09:27:32;94156.06;;;8.49;46.46
12219;BME280;6172;42.646;23.344;2023-04-06T09:30:05;94166.00;;;8.05;47.25
12219;BME280;6172;42.646;23.344;2023-04-06T09:32:32;94147.66;;;8.40;46.60
12219;BME280;6172;42.646;23.344;2023-04-06T09:35:08;94160.06;;;8.64;46.37
12219;BME280;6172;42.646;23.344;2023-04-06T09:37:37;94156.59;;;8.40;45.37
12219;BME280;6172;42.646;23.344;2023-04-06T09:40:07;94158.03;;;8.91;45.13
12219;BME280;6172;42.646;23.344;2023-04-06T09:42:34;94165.97;;;8.82;44.80
12219;BME280;6172;42.646;23.344;2023-04-06T09:45:02;94165.94;;;8.36;45.49
12219;BME280;6172;42.646;23.344;2023-04-06T09:47:33;94166.72;;;8.59;44.94
12219;BME280;6172;42.646;23.344;2023-04-06T09:50:03;94166.91;;;8.49;45.27
12219;BME280;6172;42.646;23.344;2023-04-06T09:52:33;94165.97;;;8.82;44.35
12219;BME280;6172;42.646;23.344;2023-04-06T09:55:05;94171.53;;;8.52;44.59
12219;BME280;6172;42.646;23.344;2023-04-06T09:57:37;94174.28;;;8.48;43.98
12219;BME280;6172;42.646;23.344;2023-04-06T10:00:10;94180.28;;;8.36;43.94
12219;BME280;6172;42.646;23.344;2023-04-06T10:02:44;94163.41;;;8.48;44.04
12219;BME280;6172;42.646;23.344;2023-04-06T10:05:18;94171.22;;;8.69;43.27
12219;BME280;6172;42.646;23.344;2023-04-06T10:08:06;94170.81;;;8.21;43.89
12219;BME280;6172;42.646;23.344;2023-04-06T10:10:36;94172.72;;;7.67;44.82
12219;BME280;6172;42.646;23.344;2023-04-06T10:13:04;94169.97;;;8.24;44.67
12219;BME280;6172;42.646;23.344;2023-04-06T10:15:31;94167.94;;;8.32;44.67
12219;BME280;6172;42.646;23.344;2023-04-06T10:17:59;94167.44;;;8.40;44.12
12219;BME280;6172;42.646;23.344;2023-04-06T10:20:30;94165.44;;;7.91;44.63
12219;BME280;6172;42.646;23.344;2023-04-06T10:23:05;94174.75;;;8.17;45.24
12219;BME280;6172;42.646;23.344;2023-04-06T10:25:33;94159.84;;;8.01;43.93
12219;BME280;6172;42.646;23.344;2023-04-06T10:28:05;94170.41;;;7.02;46.08
12219;BME280;6172;42.646;23.344;2023-04-06T10:30:32;94161.50;;;7.35;45.71
12219;BME280;6172;42.646;23.344;2023-04-06T10:33:00;94155.91;;;7.49;46.06
12219;BME280;6172;42.646;23.344;2023-04-06T10:35:37;94159.75;;;7.52;45.53
12219;BME280;6172;42.646;23.344;2023-04-06T10:38:06;94153.13;;;7.83;45.89
12219;BME280;6172;42.646;23.344;2023-04-06T10:40:35;94143.53;;;8.55;44.62
12219;BME280;6172;42.646;23.344;2023-04-06T10:43:10;94158.88;;;8.42;44.01
12219;BME280;6172;42.646;23.344;2023-04-06T10:45:38;94162.91;;;8.03;44.12
12219;BME280;6172;42.646;23.344;2023-04-06T10:48:15;94158.31;;;8.00;44.55
12219;BME280;6172;42.646;23.344;2023-04-06T10:50:43;94144.44;;;7.95;44.66
12219;BME280;6172;42.646;23.344;2023-04-06T10:53:21;94152.69;;;7.58;45.26
12219;BME280;6172;42.646;23.344;2023-04-06T10:55:49;94154.09;;;7.69;45.41
12219;BME280;6172;42.646;23.344;2023-04-06T10:58:16;94152.00;;;7.20;46.77
12219;BME280;6172;42.646;23.344;2023-04-06T11:00:45;94154.19;;;7.62;45.90
12219;BME280;6172;42.646;23.344;2023-04-06T11:03:12;94156.13;;;7.62;45.86
12219;BME280;6172;42.646;23.344;2023-04-06T11:05:43;94153.72;;;7.67;45.88
12219;BME280;6172;42.646;23.344;2023-04-06T11:08:22;94152.50;;;7.42;46.66
12219;BME280;6172;42.646;23.344;2023-04-06T11:10:49;94135.69;;;7.84;46.37
12219;BME280;6172;42.646;23.344;2023-04-06T11:13:16;94140.28;;;8.13;45.58
12219;BME280;6172;42.646;23.344;2023-04-06T11:15:43;94127.00;;;7.66;45.58
12219;BME280;6172;42.646;23.344;2023-04-06T11:18:10;94130.31;;;7.50;46.19
12219;BME280;6172;42.646;23.344;2023-04-06T11:20:37;94132.50;;;7.89;44.87
12219;BME280;6172;42.646;23.344;2023-04-06T11:23:04;94139.88;;;7.58;45.62
12219;BME280;6172;42.646;23.344;2023-04-06T11:25:33;94137.25;;;7.21;45.57
12219;BME280;6172;42.646;23.344;2023-04-06T11:28:00;94133.88;;;7.14;46.08
12219;BME280;6172;42.646;23.344;2023-04-06T11:30:27;94136.25;;;7.08;46.88
12219;BME280;6172;42.646;23.344;2023-04-06T11:33:00;94136.63;;;7.10;46.89
12219;BME280;6172;42.646;23.344;2023-04-06T11:35:31;94128.66;;;6.96;46.87
12219;BME280;6172;42.646;23.344;2023-04-06T11:38:02;94132.44;;;6.69;47.84
12219;BME280;6172;42.646;23.344;2023-04-06T11:40:29;94125.63;;;6.50;48.09
12219;BME280;6172;42.646;23.344;2023-04-06T11:43:00;94120.69;;;6.38;48.45
12219;BME280;6172;42.646;23.344;2023-04-06T11:45:26;94123.59;;;6.61;48.14
12219;BME280;6172;42.646;23.344;2023-04-06T11:47:57;94130.28;;;6.46;48.46
12219;BME280;6172;42.646;23.344;2023-04-06T11:50:25;94132.09;;;6.16;49.32
12219;BME280;6172;42.646;23.344;2023-04-06T11:52:59;94128.34;;;5.99;49.66
12219;BME280;6172;42.646;23.344;2023-04-06T11:55:27;94116.78;;;5.95;49.94
12219;BME280;6172;42.646;23.344;2023-04-06T11:57:54;94118.47;;;5.75;50.33
12219;BME280;6172;42.646;23.344;2023-04-06T12:00:23;94127.03;;;5.70;50.65
12219;BME280;6172;42.646;23.344;2023-04-06T12:02:50;94126.78;;;5.47;50.86
12219;BME280;6172;42.646;23.344;2023-04-06T12:05:19;94121.03;;;5.34;51.24
12219;BME280;6172;42.646;23.344;2023-04-06T12:07:46;94112.91;;;5.38;51.06
12219;BME280;6172;42.646;23.344;2023-04-06T12:10:13;94120.97;;;5.41;51.75
12219;BME280;6172;42.646;23.344;2023-04-06T12:12:40;94119.72;;;5.63;51.45
12219;BME280;6172;42.646;23.344;2023-04-06T12:15:08;94116.75;;;5.44;51.13
12219;BME280;6172;42.646;23.344;2023-04-06T12:17:36;94120.38;;;5.09;52.25
12219;BME280;6172;42.646;23.344;2023-04-06T12:20:04;94123.00;;;5.20;52.76
12219;BME280;6172;42.646;23.344;2023-04-06T12:22:31;94129.63;;;5.15;52.74
12219;BME280;6172;42.646;23.344;2023-04-06T12:24:58;94116.97;;;4.95;53.95
12219;BME280;6172;42.646;23.344;2023-04-06T12:27:26;94109.97;;;5.04;54.38
12219;BME280;6172;42.646;23.344;2023-04-06T12:29:53;94123.88;;;5.03;55.24
12219;BME280;6172;42.646;23.344;2023-04-06T12:32:41;94121.13;;;5.10;54.80
12219;BME280;6172;42.646;23.344;2023-04-06T12:35:08;94123.50;;;5.01;54.46
12219;BME280;6172;42.646;23.344;2023-04-06T12:37:37;94121.66;;;4.70;55.03
12219;BME280;6172;42.646;23.344;2023-04-06T12:40:05;94111.63;;;4.77;54.75
12219;BME280;6172;42.646;23.344;2023-04-06T12:42:32;94114.72;;;4.72;55.18
12219;BME280;6172;42.646;23.344;2023-04-06T12:44:59;94118.16;;;4.83;55.23
12219;BME280;6172;42.646;23.344;2023-04-06T12:47:26;94105.03;;;4.89;55.38
12219;BME280;6172;42.646;23.344;2023-04-06T12:49:56;94099.63;;;4.85;55.55
12219;BME280;6172;42.646;23.344;2023-04-06T12:52:23;94095.03;;;4.79;55.40
12219;BME280;6172;42.646;23.344;2023-04-06T12:54:50;94100.75;;;4.95;55.27
12219;BME280;6172;42.646;23.344;2023-04-06T12:57:18;94093.13;;;4.69;55.10
12219;BME280;6172;42.646;23.344;2023-04-06T12:59:51;94087.00;;;4.54;55.56
12219;BME280;6172;42.646;23.344;2023-04-06T13:02:19;94095.09;;;4.58;56.99
12219;BME280;6172;42.646;23.344;2023-04-06T13:04:47;94101.25;;;4.62;55.79
12219;BME280;6172;42.646;23.344;2023-04-06T13:07:17;94090.44;;;4.65;55.63